sensor_id;sensor_type;location;lat;lon;timestamp;P1;durP1;ratioP1;P2;durP2;ratioP2
12707;SDS011;6418;50.824;4.718;2023-06-22T00:00:11;12.90;;;6.90;;
12707;SDS011;6418;50.824;4.718;2023-06-22T00:02:38;13.13;;;6.88;;
12707;SDS011;6418;50.824;4.718;2023-06-22T00:05:05;13.95;;;6.88;;
12707;SDS011;6418;50.824;4.718;2023-06-22T00:07:33;11.10;;;6.68;;
12707;SDS011;6418;50.824;4.718;2023-06-22T00:10:01;12.30;;;6.40;;
12707;SDS011;6418;50.824;4.718;2023-06-22T00:12:29;12.02;;;6.80;;
12707;SDS011;6418;50.824;4.718;2023-06-22T00:14:57;13.85;;;7.32;;
12707;SDS011;6418;50.824;4.718;2023-06-22T00:17:24;16.58;;;7.05;;
12707;SDS011;6418;50.824;4.718;2023-06-22T00:19:50;12.73;;;6.85;;
12707;SDS011;6418;50.824;4.718;2023-06-22T00:22:20;12.70;;;6.95;;
12707;SDS011;6418;50.824;4.718;2023-06-22T00:24:53;11.55;;;6.65;;
12707;SDS011;6418;50.824;4.718;2023-06-22T00:27:20;13.60;;;6.95;;
12707;SDS011;6418;50.824;4.718;2023-06-22T00:29:48;11.88;;;6.90;;
12707;SDS011;6418;50.824;4.718;2023-06-22T00:32:15;12.20;;;6.15;;
12707;SDS011;6418;50.824;4.718;2023-06-22T00:34:42;12.52;;;6.40;;
12707;SDS011;6418;50.824;4.718;2023-06-22T00:37:09;12.70;;;6.38;;
12707;SDS011;6418;50.824;4.718;2023-06-22T00:39:37;12.15;;;6.10;;
12707;SDS011;6418;50.824;4.718;2023-06-22T00:42:04;10.20;;;5.70;;
12707;SDS011;6418;50.824;4.718;2023-06-22T00:44:31;12.60;;;6.30;;
12707;SDS011;6418;50.824;4.718;2023-06-22T00:46:59;10.82;;;6.20;;
12707;SDS011;6418;50.824;4.718;2023-06-22T00:49:26;12.15;;;6.80;;
12707;SDS011;6418;50.824;4.718;2023-06-22T00:51:54;12.95;;;6.25;;
12707;SDS011;6418;50.824;4.718;2023-06-22T00:54:21;10.75;;;6.28;;
12707;SDS011;6418;50.824;4.718;2023-06-22T00:56:49;11.90;;;6.32;;
12707;SDS011;6418;50.824;4.718;2023-06-22T00:59:17;12.55;;;6.50;;
12707;SDS011;6418;50.824;4.718;2023-06-22T01:01:44;13.35;;;7.05;;
12707;SDS011;6418;50.824;4.718;2023-06-22T01:04:13;13.10;;;7.20;;
12707;SDS011;6418;50.824;4.718;2023-06-22T01:06:41;12.18;;;6.20;;
12707;SDS011;6418;50.824;4.718;2023-06-22T01:09:12;12.77;;;6.82;;
12707;SDS011;6418;50.824;4.718;2023-06-22T01:11:47;13.85;;;6.80;;
12707;SDS011;6418;50.824;4.718;2023-06-22T01:14:20;13.02;;;6.85;;
12707;SDS011;6418;50.824;4.718;2023-06-22T01:16:53;13.35;;;7.63;;
12707;SDS011;6418;50.824;4.718;2023-06-22T01:19:29;13.98;;;7.40;;
12707;SDS011;6418;50.824;4.718;2023-06-22T01:22:06;15.93;;;8.27;;
12707;SDS011;6418;50.824;4.718;2023-06-22T01:24:41;13.88;;;7.85;;
12707;SDS011;6418;50.824;4.718;2023-06-22T01:27:19;12.85;;;7.80;;
12707;SDS011;6418;50.824;4.718;2023-06-22T01:29:59;14.60;;;7.87;;
12707;SDS011;6418;50.824;4.718;2023-06-22T01:32:28;13.82;;;8.00;;
12707;SDS011;6418;50.824;4.718;2023-06-22T01:34:58;13.82;;;7.70;;
12707;SDS011;6418;50.824;4.718;2023-06-22T01:37:27;12.50;;;7.47;;
12707;SDS011;6418;50.824;4.718;2023-06-22T01:39:57;14.63;;;8.13;;
12707;SDS011;6418;50.824;4.718;2023-06-22T01:42:25;15.05;;;8.68;;
12707;SDS011;6418;50.824;4.718;2023-06-22T01:44:52;15.93;;;8.23;;
12707;SDS011;6418;50.824;4.718;2023-06-22T01:47:21;16.60;;;8.40;;
12707;SDS011;6418;50.824;4.718;2023-06-22T01:49:49;13.38;;;7.82;;
12707;SDS011;6418;50.824;4.718;2023-06-22T01:52:17;14.00;;;8.32;;
12707;SDS011;6418;50.824;4.718;2023-06-22T01:54:46;13.50;;;7.80;;
12707;SDS011;6418;50.824;4.718;2023-06-22T01:57:13;12.18;;;7.65;;
12707;SDS011;6418;50.824;4.718;2023-06-22T01:59:43;15.87;;;8.40;;
12707;SDS011;6418;50.824;4.718;2023-06-22T02:02:16;14.18;;;8.23;;
12707;SDS011;6418;50.824;4.718;2023-06-22T02:04:54;13.82;;;8.18;;
12707;SDS011;6418;50.824;4.718;2023-06-22T02:07:26;13.53;;;7.80;;
12707;SDS011;6418;50.824;4.718;2023-06-22T02:09:57;12.90;;;7.97;;
12707;SDS011;6418;50.824;4.718;2023-06-22T02:12:26;14.90;;;8.30;;
12707;SDS011;6418;50.824;4.718;2023-06-22T02:14:54;13.80;;;7.78;;
12707;SDS011;6418;50.824;4.718;2023-06-22T02:17:22;13.68;;;7.55;;
12707;SDS011;6418;50.824;4.718;2023-06-22T02:19:52;12.37;;;7.70;;
12707;SDS011;6418;50.824;4.718;2023-06-22T02:22:19;13.27;;;7.95;;
12707;SDS011;6418;50.824;4.718;2023-06-22T02:24:46;13.30;;;7.68;;
12707;SDS011;6418;50.824;4.718;2023-06-22T02:27:13;13.13;;;7.68;;
12707;SDS011;6418;50.824;4.718;2023-06-22T02:29:40;14.55;;;8.00;;
12707;SDS011;6418;50.824;4.718;2023-06-22T02:32:07;13.07;;;7.40;;
12707;SDS011;6418;50.824;4.718;2023-06-22T02:34:34;13.90;;;8.13;;
12707;SDS011;6418;50.824;4.718;2023-06-22T02:37:03;14.97;;;7.97;;
12707;SDS011;6418;50.824;4.718;2023-06-22T02:39:30;13.23;;;7.90;;
12707;SDS011;6418;50.824;4.718;2023-06-22T02:41:57;14.67;;;8.13;;
12707;SDS011;6418;50.824;4.718;2023-06-22T02:44:24;14.87;;;7.80;;
12707;SDS011;6418;50.824;4.718;2023-06-22T02:46:51;13.93;;;7.77;;
12707;SDS011;6418;50.824;4.718;2023-06-22T02:49:19;13.57;;;8.17;;
12707;SDS011;6418;50.824;4.718;2023-06-22T02:51:46;16.63;;;8.33;;
12707;SDS011;6418;50.824;4.718;2023-06-22T02:54:15;13.60;;;7.80;;
12707;SDS011;6418;50.824;4.718;2023-06-22T02:56:42;14.70;;;7.87;;
12707;SDS011;6418;50.824;4.718;2023-06-22T02:59:10;14.33;;;8.20;;
12707;SDS011;6418;50.824;4.718;2023-06-22T03:01:37;13.65;;;7.97;;
12707;SDS011;6418;50.824;4.718;2023-06-22T03:04:05;14.10;;;8.57;;
12707;SDS011;6418;50.824;4.718;2023-06-22T03:06:32;13.83;;;8.53;;
12707;SDS011;6418;50.824;4.718;2023-06-22T03:09:00;13.20;;;8.27;;
12707;SDS011;6418;50.824;4.718;2023-06-22T03:11:30;14.43;;;7.95;;
12707;SDS011;6418;50.824;4.718;2023-06-22T03:13:57;14.35;;;7.75;;
12707;SDS011;6418;50.824;4.718;2023-06-22T03:16:24;14.75;;;8.25;;
12707;SDS011;6418;50.824;4.718;2023-06-22T03:18:51;14.40;;;7.90;;
12707;SDS011;6418;50.824;4.718;2023-06-22T03:21:19;13.37;;;7.67;;
12707;SDS011;6418;50.824;4.718;2023-06-22T03:23:46;13.02;;;7.93;;
12707;SDS011;6418;50.824;4.718;2023-06-22T03:26:13;13.97;;;7.87;;
12707;SDS011;6418;50.824;4.718;2023-06-22T03:28:44;13.73;;;7.70;;
12707;SDS011;6418;50.824;4.718;2023-06-22T03:31:11;14.83;;;8.10;;
12707;SDS011;6418;50.824;4.718;2023-06-22T03:33:37;12.67;;;7.97;;
12707;SDS011;6418;50.824;4.718;2023-06-22T03:36:04;13.57;;;7.97;;
12707;SDS011;6418;50.824;4.718;2023-06-22T03:38:32;14.95;;;8.23;;
12707;SDS011;6418;50.824;4.718;2023-06-22T03:40:59;15.27;;;8.77;;
12707;SDS011;6418;50.824;4.718;2023-06-22T03:43:26;14.10;;;8.33;;
12707;SDS011;6418;50.824;4.718;2023-06-22T03:45:54;15.02;;;7.97;;
12707;SDS011;6418;50.824;4.718;2023-06-22T03:48:21;14.53;;;8.90;;
12707;SDS011;6418;50.824;4.718;2023-06-22T03:50:48;14.50;;;8.90;;
12707;SDS011;6418;50.824;4.718;2023-06-22T03:53:14;15.88;;;9.40;;
12707;SDS011;6418;50.824;4.718;2023-06-22T03:55:47;15.93;;;9.03;;
12707;SDS011;6418;50.824;4.718;2023-06-22T03:58:16;14.37;;;9.00;;
12707;SDS011;6418;50.824;4.718;2023-06-22T04:00:44;15.77;;;8.80;;
12707;SDS011;6418;50.824;4.718;2023-06-22T04:03:12;15.35;;;9.35;;
12707;SDS011;6418;50.824;4.718;2023-06-22T04:05:39;14.90;;;8.90;;
12707;SDS011;6418;50.824;4.718;2023-06-22T04:08:06;17.02;;;8.93;;
12707;SDS011;6418;50.824;4.718;2023-06-22T04:10:33;14.32;;;8.82;;
12707;SDS011;6418;50.824;4.718;2023-06-22T04:13:00;17.77;;;8.82;;
12707;SDS011;6418;50.824;4.718;2023-06-22T04:15:27;16.80;;;10.52;;
12707;SDS011;6418;50.824;4.718;2023-06-22T04:17:54;14.60;;;10.13;;
12707;SDS011;6418;50.824;4.718;2023-06-22T04:20:23;16.27;;;9.75;;
12707;SDS011;6418;50.824;4.718;2023-06-22T04:22:51;20.55;;;10.40;;
12707;SDS011;6418;50.824;4.718;2023-06-22T04:25:18;19.83;;;11.10;;
12707;SDS011;6418;50.824;4.718;2023-06-22T04:27:45;16.77;;;10.73;;
12707;SDS011;6418;50.824;4.718;2023-06-22T04:30:13;16.75;;;10.93;;
12707;SDS011;6418;50.824;4.718;2023-06-22T04:32:41;16.73;;;10.77;;
12707;SDS011;6418;50.824;4.718;2023-06-22T04:35:09;18.03;;;11.10;;
12707;SDS011;6418;50.824;4.718;2023-06-22T04:37:38;17.83;;;11.15;;
12707;SDS011;6418;50.824;4.718;2023-06-22T04:40:06;17.58;;;11.20;;
12707;SDS011;6418;50.824;4.718;2023-06-22T04:42:34;19.70;;;11.88;;
12707;SDS011;6418;50.824;4.718;2023-06-22T04:45:04;18.77;;;11.60;;
12707;SDS011;6418;50.824;4.718;2023-06-22T04:47:32;17.57;;;11.23;;
12707;SDS011;6418;50.824;4.718;2023-06-22T04:49:59;17.47;;;11.30;;
12707;SDS011;6418;50.824;4.718;2023-06-22T04:52:31;19.67;;;11.83;;
12707;SDS011;6418;50.824;4.718;2023-06-22T04:54:59;18.08;;;12.07;;
12707;SDS011;6418;50.824;4.718;2023-06-22T04:57:26;19.77;;;12.33;;
12707;SDS011;6418;50.824;4.718;2023-06-22T04:59:57;17.83;;;12.43;;
12707;SDS011;6418;50.824;4.718;2023-06-22T05:02:32;19.65;;;12.70;;
12707;SDS011;6418;50.824;4.718;2023-06-22T05:04:58;19.85;;;12.07;;
12707;SDS011;6418;50.824;4.718;2023-06-22T05:07:25;18.13;;;11.90;;
12707;SDS011;6418;50.824;4.718;2023-06-22T05:09:52;20.35;;;11.63;;
12707;SDS011;6418;50.824;4.718;2023-06-22T05:12:20;19.48;;;11.93;;
12707;SDS011;6418;50.824;4.718;2023-06-22T05:14:47;17.15;;;11.52;;
12707;SDS011;6418;50.824;4.718;2023-06-22T05:17:14;18.45;;;11.70;;
12707;SDS011;6418;50.824;4.718;2023-06-22T05:19:44;16.45;;;9.95;;
12707;SDS011;6418;50.824;4.718;2023-06-22T05:22:13;14.68;;;9.60;;
12707;SDS011;6418;50.824;4.718;2023-06-22T05:24:40;18.83;;;10.52;;
12707;SDS011;6418;50.824;4.718;2023-06-22T05:27:07;16.48;;;10.63;;
12707;SDS011;6418;50.824;4.718;2023-06-22T05:29:36;16.88;;;11.80;;
12707;SDS011;6418;50.824;4.718;2023-06-22T05:32:03;19.75;;;12.85;;
12707;SDS011;6418;50.824;4.718;2023-06-22T05:34:30;21.40;;;13.15;;
12707;SDS011;6418;50.824;4.718;2023-06-22T05:36:57;21.15;;;14.00;;
12707;SDS011;6418;50.824;4.718;2023-06-22T05:39:24;22.08;;;13.48;;
12707;SDS011;6418;50.824;4.718;2023-06-22T05:41:51;18.38;;;13.85;;
12707;SDS011;6418;50.824;4.718;2023-06-22T05:44:18;22.10;;;13.82;;
12707;SDS011;6418;50.824;4.718;2023-06-22T05:46:47;20.92;;;14.20;;
12707;SDS011;6418;50.824;4.718;2023-06-22T05:49:14;20.63;;;14.38;;
12707;SDS011;6418;50.824;4.718;2023-06-22T05:51:41;19.30;;;14.57;;
12707;SDS011;6418;50.824;4.718;2023-06-22T05:54:08;23.58;;;14.68;;
12707;SDS011;6418;50.824;4.718;2023-06-22T05:56:35;21.70;;;15.15;;
12707;SDS011;6418;50.824;4.718;2023-06-22T05:59:02;21.83;;;16.00;;
12707;SDS011;6418;50.824;4.718;2023-06-22T06:01:30;23.10;;;15.82;;
12707;SDS011;6418;50.824;4.718;2023-06-22T06:04:01;22.45;;;15.40;;
12707;SDS011;6418;50.824;4.718;2023-06-22T06:06:29;21.90;;;15.52;;
12707;SDS011;6418;50.824;4.718;2023-06-22T06:08:56;22.42;;;15.70;;
12707;SDS011;6418;50.824;4.718;2023-06-22T06:11:23;24.95;;;15.63;;
12707;SDS011;6418;50.824;4.718;2023-06-22T06:13:51;22.00;;;14.88;;
12707;SDS011;6418;50.824;4.718;2023-06-22T06:16:18;23.70;;;15.77;;
12707;SDS011;6418;50.824;4.718;2023-06-22T06:18:45;24.77;;;15.65;;
12707;SDS011;6418;50.824;4.718;2023-06-22T06:21:15;23.30;;;15.70;;
12707;SDS011;6418;50.824;4.718;2023-06-22T06:23:42;20.45;;;14.48;;
12707;SDS011;6418;50.824;4.718;2023-06-22T06:26:10;21.17;;;15.00;;
12707;SDS011;6418;50.824;4.718;2023-06-22T06:28:37;22.10;;;15.98;;
12707;SDS011;6418;50.824;4.718;2023-06-22T06:31:04;23.00;;;16.83;;
12707;SDS011;6418;50.824;4.718;2023-06-22T06:33:32;23.00;;;16.02;;
12707;SDS011;6418;50.824;4.718;2023-06-22T06:35:59;23.60;;;15.65;;
12707;SDS011;6418;50.824;4.718;2023-06-22T06:38:29;22.73;;;15.82;;
12707;SDS011;6418;50.824;4.718;2023-06-22T06:40:57;21.92;;;15.68;;
12707;SDS011;6418;50.824;4.718;2023-06-22T06:43:24;22.85;;;15.38;;
12707;SDS011;6418;50.824;4.718;2023-06-22T06:45:51;23.52;;;16.00;;
12707;SDS011;6418;50.824;4.718;2023-06-22T06:48:18;24.73;;;15.68;;
12707;SDS011;6418;50.824;4.718;2023-06-22T06:50:45;24.88;;;16.73;;
12707;SDS011;6418;50.824;4.718;2023-06-22T06:53:12;24.58;;;15.82;;
12707;SDS011;6418;50.824;4.718;2023-06-22T06:55:40;23.67;;;16.25;;
12707;SDS011;6418;50.824;4.718;2023-06-22T06:58:10;25.02;;;15.93;;
12707;SDS011;6418;50.824;4.718;2023-06-22T07:00:38;26.33;;;16.95;;
12707;SDS011;6418;50.824;4.718;2023-06-22T07:03:05;24.20;;;15.98;;
12707;SDS011;6418;50.824;4.718;2023-06-22T07:05:33;23.27;;;16.20;;
12707;SDS011;6418;50.824;4.718;2023-06-22T07:08:00;26.33;;;15.70;;
12707;SDS011;6418;50.824;4.718;2023-06-22T07:10:27;24.33;;;16.20;;
12707;SDS011;6418;50.824;4.718;2023-06-22T07:12:56;24.33;;;15.98;;
12707;SDS011;6418;50.824;4.718;2023-06-22T07:15:23;27.60;;;16.13;;
12707;SDS011;6418;50.824;4.718;2023-06-22T07:17:50;22.92;;;15.88;;
12707;SDS011;6418;50.824;4.718;2023-06-22T07:20:17;22.80;;;14.80;;
12707;SDS011;6418;50.824;4.718;2023-06-22T07:22:44;21.13;;;14.13;;
12707;SDS011;6418;50.824;4.718;2023-06-22T07:25:11;25.20;;;14.65;;
12707;SDS011;6418;50.824;4.718;2023-06-22T07:27:42;25.02;;;13.88;;
12707;SDS011;6418;50.824;4.718;2023-06-22T07:30:12;20.75;;;13.02;;
12707;SDS011;6418;50.824;4.718;2023-06-22T07:32:39;19.15;;;11.95;;
12707;SDS011;6418;50.824;4.718;2023-06-22T07:35:07;17.80;;;11.18;;
12707;SDS011;6418;50.824;4.718;2023-06-22T07:37:34;18.75;;;10.60;;
12707;SDS011;6418;50.824;4.718;2023-06-22T07:40:01;18.77;;;10.00;;
12707;SDS011;6418;50.824;4.718;2023-06-22T07:42:31;17.83;;;10.02;;
12707;SDS011;6418;50.824;4.718;2023-06-22T07:44:59;16.83;;;9.00;;
12707;SDS011;6418;50.824;4.718;2023-06-22T07:47:28;15.05;;;9.15;;
12707;SDS011;6418;50.824;4.718;2023-06-22T07:49:55;15.05;;;9.00;;
12707;SDS011;6418;50.824;4.718;2023-06-22T07:52:23;17.58;;;9.77;;
12707;SDS011;6418;50.824;4.718;2023-06-22T07:54:51;13.68;;;8.63;;
12707;SDS011;6418;50.824;4.718;2023-06-22T07:57:18;16.13;;;9.10;;
12707;SDS011;6418;50.824;4.718;2023-06-22T07:59:45;16.73;;;9.63;;
12707;SDS011;6418;50.824;4.718;2023-06-22T08:02:12;17.80;;;9.18;;
12707;SDS011;6418;50.824;4.718;2023-06-22T08:04:40;17.15;;;9.07;;
12707;SDS011;6418;50.824;4.718;2023-06-22T08:07:07;15.50;;;8.85;;
12707;SDS011;6418;50.824;4.718;2023-06-22T08:09:35;18.52;;;9.45;;
12707;SDS011;6418;50.824;4.718;2023-06-22T08:12:02;14.48;;;9.10;;
12707;SDS011;6418;50.824;4.718;2023-06-22T08:14:29;14.45;;;9.20;;
12707;SDS011;6418;50.824;4.718;2023-06-22T08:16:56;15.00;;;9.20;;
12707;SDS011;6418;50.824;4.718;2023-06-22T08:19:23;13.70;;;8.70;;
12707;SDS011;6418;50.824;4.718;2023-06-22T08:21:51;14.43;;;9.40;;
12707;SDS011;6418;50.824;4.718;2023-06-22T08:24:18;15.48;;;9.27;;
12707;SDS011;6418;50.824;4.718;2023-06-22T08:26:45;13.95;;;8.38;;
12707;SDS011;6418;50.824;4.718;2023-06-22T08:29:12;14.35;;;8.95;;
12707;SDS011;6418;50.824;4.718;2023-06-22T08:31:39;17.90;;;9.10;;
12707;SDS011;6418;50.824;4.718;2023-06-22T08:34:06;14.88;;;8.88;;
12707;SDS011;6418;50.824;4.718;2023-06-22T08:36:33;14.35;;;8.27;;
12707;SDS011;6418;50.824;4.718;2023-06-22T08:39:07;19.10;;;9.15;;
12707;SDS011;6418;50.824;4.718;2023-06-22T08:41:34;17.88;;;9.52;;
12707;SDS011;6418;50.824;4.718;2023-06-22T08:44:01;16.13;;;8.63;;
12707;SDS011;6418;50.824;4.718;2023-06-22T08:46:29;16.05;;;9.13;;
12707;SDS011;6418;50.824;4.718;2023-06-22T08:48:58;15.50;;;9.18;;
12707;SDS011;6418;50.824;4.718;2023-06-22T08:51:26;14.32;;;8.80;;
12707;SDS011;6418;50.824;4.718;2023-06-22T08:53:53;15.75;;;9.73;;
12707;SDS011;6418;50.824;4.718;2023-06-22T08:56:22;14.80;;;9.07;;
12707;SDS011;6418;50.824;4.718;2023-06-22T08:58:48;16.98;;;9.98;;
12707;SDS011;6418;50.824;4.718;2023-06-22T09:01:15;14.85;;;9.10;;
12707;SDS011;6418;50.824;4.718;2023-06-22T09:03:42;15.98;;;9.57;;
12707;SDS011;6418;50.824;4.718;2023-06-22T09:06:09;15.27;;;9.80;;
12707;SDS011;6418;50.824;4.718;2023-06-22T09:08:39;15.75;;;10.38;;
12707;SDS011;6418;50.824;4.718;2023-06-22T09:11:06;15.70;;;10.60;;
12707;SDS011;6418;50.824;4.718;2023-06-22T09:13:34;17.20;;;10.60;;
12707;SDS011;6418;50.824;4.718;2023-06-22T09:16:02;16.42;;;10.68;;
12707;SDS011;6418;50.824;4.718;2023-06-22T09:18:29;17.33;;;11.48;;
12707;SDS011;6418;50.824;4.718;2023-06-22T09:20:56;20.10;;;13.23;;
12707;SDS011;6418;50.824;4.718;2023-06-22T09:23:23;17.08;;;11.15;;
12707;SDS011;6418;50.824;4.718;2023-06-22T09:25:50;18.55;;;11.70;;
12707;SDS011;6418;50.824;4.718;2023-06-22T09:28:17;17.33;;;11.52;;
12707;SDS011;6418;50.824;4.718;2023-06-22T09:30:45;19.00;;;11.50;;
12707;SDS011;6418;50.824;4.718;2023-06-22T09:33:12;18.17;;;12.07;;
12707;SDS011;6418;50.824;4.718;2023-06-22T09:35:39;22.95;;;13.93;;
12707;SDS011;6418;50.824;4.718;2023-06-22T09:38:06;23.35;;;16.40;;
12707;SDS011;6418;50.824;4.718;2023-06-22T09:40:32;20.45;;;15.23;;
12707;SDS011;6418;50.824;4.718;2023-06-22T09:43:04;19.08;;;13.13;;
12707;SDS011;6418;50.824;4.718;2023-06-22T09:45:31;22.77;;;14.60;;
12707;SDS011;6418;50.824;4.718;2023-06-22T09:48:00;22.77;;;15.68;;
12707;SDS011;6418;50.824;4.718;2023-06-22T09:50:27;23.30;;;15.43;;
12707;SDS011;6418;50.824;4.718;2023-06-22T09:52:53;23.52;;;15.85;;
12707;SDS011;6418;50.824;4.718;2023-06-22T09:55:20;23.90;;;16.90;;
12707;SDS011;6418;50.824;4.718;2023-06-22T09:57:47;24.92;;;16.85;;
12707;SDS011;6418;50.824;4.718;2023-06-22T10:00:15;27.40;;;19.35;;
12707;SDS011;6418;50.824;4.718;2023-06-22T10:02:44;28.25;;;19.42;;
12707;SDS011;6418;50.824;4.718;2023-06-22T10:05:12;27.88;;;19.75;;
12707;SDS011;6418;50.824;4.718;2023-06-22T10:07:39;30.27;;;20.10;;
12707;SDS011;6418;50.824;4.718;2023-06-22T10:10:08;35.10;;;20.50;;
12707;SDS011;6418;50.824;4.718;2023-06-22T10:12:35;29.43;;;21.70;;
12707;SDS011;6418;50.824;4.718;2023-06-22T10:15:02;33.25;;;21.05;;
12707;SDS011;6418;50.824;4.718;2023-06-22T10:17:30;31.05;;;20.65;;
12707;SDS011;6418;50.824;4.718;2023-06-22T10:19:56;26.17;;;20.33;;
12707;SDS011;6418;50.824;4.718;2023-06-22T10:22:25;30.93;;;21.73;;
12707;SDS011;6418;50.824;4.718;2023-06-22T10:24:51;30.77;;;22.60;;
12707;SDS011;6418;50.824;4.718;2023-06-22T10:27:18;30.87;;;23.07;;
12707;SDS011;6418;50.824;4.718;2023-06-22T10:29:45;35.43;;;25.37;;
12707;SDS011;6418;50.824;4.718;2023-06-22T10:32:12;37.23;;;26.30;;
12707;SDS011;6418;50.824;4.718;2023-06-22T10:34:39;35.87;;;28.10;;
12707;SDS011;6418;50.824;4.718;2023-06-22T10:37:06;35.67;;;26.97;;
12707;SDS011;6418;50.824;4.718;2023-06-22T10:39:34;39.97;;;29.90;;
12707;SDS011;6418;50.824;4.718;2023-06-22T10:42:01;41.50;;;29.87;;
12707;SDS011;6418;50.824;4.718;2023-06-22T10:44:28;44.83;;;32.97;;
12707;SDS011;6418;50.824;4.718;2023-06-22T10:46:55;45.77;;;33.00;;
12707;SDS011;6418;50.824;4.718;2023-06-22T10:49:22;51.57;;;35.43;;
12707;SDS011;6418;50.824;4.718;2023-06-22T10:51:48;55.87;;;38.27;;
12707;SDS011;6418;50.824;4.718;2023-06-22T10:54:15;62.53;;;41.07;;
12707;SDS011;6418;50.824;4.718;2023-06-22T10:56:45;67.10;;;42.93;;
12707;SDS011;6418;50.824;4.718;2023-06-22T10:59:12;63.50;;;41.73;;
12707;SDS011;6418;50.824;4.718;2023-06-22T11:01:39;64.10;;;42.13;;
12707;SDS011;6418;50.824;4.718;2023-06-22T11:04:06;63.73;;;41.60;;
12707;SDS011;6418;50.824;4.718;2023-06-22T11:06:33;56.70;;;39.60;;
12707;SDS011;6418;50.824;4.718;2023-06-22T11:09:00;68.23;;;42.30;;
12707;SDS011;6418;50.824;4.718;2023-06-22T11:11:28;62.47;;;40.47;;
12707;SDS011;6418;50.824;4.718;2023-06-22T11:13:57;68.13;;;43.50;;
12707;SDS011;6418;50.824;4.718;2023-06-22T11:16:24;66.90;;;44.67;;
12707;SDS011;6418;50.824;4.718;2023-06-22T11:18:50;68.67;;;44.07;;
12707;SDS011;6418;50.824;4.718;2023-06-22T11:21:17;64.67;;;44.60;;
12707;SDS011;6418;50.824;4.718;2023-06-22T11:23:44;66.97;;;45.07;;
12707;SDS011;6418;50.824;4.718;2023-06-22T11:26:11;68.10;;;46.10;;
12707;SDS011;6418;50.824;4.718;2023-06-22T11:28:38;66.37;;;46.33;;
12707;SDS011;6418;50.824;4.718;2023-06-22T11:31:06;64.87;;;46.20;;
12707;SDS011;6418;50.824;4.718;2023-06-22T11:33:34;70.57;;;46.30;;
12707;SDS011;6418;50.824;4.718;2023-06-22T11:36:01;68.90;;;46.93;;
12707;SDS011;6418;50.824;4.718;2023-06-22T11:38:28;58.17;;;42.33;;
12707;SDS011;6418;50.824;4.718;2023-06-22T11:40:55;63.13;;;44.67;;
12707;SDS011;6418;50.824;4.718;2023-06-22T11:43:25;70.97;;;48.23;;
12707;SDS011;6418;50.824;4.718;2023-06-22T11:45:52;59.30;;;40.30;;
12707;SDS011;6418;50.824;4.718;2023-06-22T11:48:22;61.63;;;43.73;;
12707;SDS011;6418;50.824;4.718;2023-06-22T11:50:49;63.97;;;44.40;;
12707;SDS011;6418;50.824;4.718;2023-06-22T11:53:16;65.53;;;46.73;;
12707;SDS011;6418;50.824;4.718;2023-06-22T11:55:43;67.30;;;46.90;;
12707;SDS011;6418;50.824;4.718;2023-06-22T11:58:10;72.30;;;49.27;;
12707;SDS011;6418;50.824;4.718;2023-06-22T12:00:37;67.33;;;48.33;;
12707;SDS011;6418;50.824;4.718;2023-06-22T12:03:04;72.20;;;49.57;;
12707;SDS011;6418;50.824;4.718;2023-06-22T12:05:32;76.27;;;51.23;;
12707;SDS011;6418;50.824;4.718;2023-06-22T12:07:59;74.37;;;50.47;;
12707;SDS011;6418;50.824;4.718;2023-06-22T12:10:26;67.83;;;43.53;;
12707;SDS011;6418;50.824;4.718;2023-06-22T12:12:54;72.83;;;49.60;;
12707;SDS011;6418;50.824;4.718;2023-06-22T12:15:22;80.00;;;52.90;;
12707;SDS011;6418;50.824;4.718;2023-06-22T12:17:50;75.57;;;49.97;;
12707;SDS011;6418;50.824;4.718;2023-06-22T12:20:16;84.87;;;55.70;;
12707;SDS011;6418;50.824;4.718;2023-06-22T12:22:45;86.50;;;55.63;;
12707;SDS011;6418;50.824;4.718;2023-06-22T12:25:12;101.93;;;57.73;;
12707;SDS011;6418;50.824;4.718;2023-06-22T12:27:39;89.57;;;53.13;;
12707;SDS011;6418;50.824;4.718;2023-06-22T12:30:06;103.37;;;59.67;;
12707;SDS011;6418;50.824;4.718;2023-06-22T12:32:34;100.27;;;57.63;;
12707;SDS011;6418;50.824;4.718;2023-06-22T12:35:01;98.07;;;57.43;;
12707;SDS011;6418;50.824;4.718;2023-06-22T12:37:29;102.53;;;60.37;;
12707;SDS011;6418;50.824;4.718;2023-06-22T12:39:58;93.13;;;52.93;;
12707;SDS011;6418;50.824;4.718;2023-06-22T12:42:25;104.80;;;53.77;;
12707;SDS011;6418;50.824;4.718;2023-06-22T12:44:53;102.60;;;53.70;;
12707;SDS011;6418;50.824;4.718;2023-06-22T12:47:20;97.67;;;55.53;;
12707;SDS011;6418;50.824;4.718;2023-06-22T12:49:46;96.93;;;53.67;;
12707;SDS011;6418;50.824;4.718;2023-06-22T12:52:13;87.40;;;48.87;;
12707;SDS011;6418;50.824;4.718;2023-06-22T12:54:40;103.23;;;57.40;;
12707;SDS011;6418;50.824;4.718;2023-06-22T12:57:08;104.17;;;58.50;;
12707;SDS011;6418;50.824;4.718;2023-06-22T12:59:35;105.13;;;57.90;;
12707;SDS011;6418;50.824;4.718;2023-06-22T13:02:02;111.23;;;60.00;;
12707;SDS011;6418;50.824;4.718;2023-06-22T13:04:30;100.17;;;56.03;;
12707;SDS011;6418;50.824;4.718;2023-06-22T13:06:56;102.33;;;59.07;;
12707;SDS011;6418;50.824;4.718;2023-06-22T13:09:23;113.03;;;60.67;;
12707;SDS011;6418;50.824;4.718;2023-06-22T13:11:50;96.17;;;56.13;;
12707;SDS011;6418;50.824;4.718;2023-06-22T13:14:19;102.20;;;57.63;;
12707;SDS011;6418;50.824;4.718;2023-06-22T13:16:46;113.20;;;61.00;;
12707;SDS011;6418;50.824;4.718;2023-06-22T13:19:13;109.77;;;61.13;;
12707;SDS011;6418;50.824;4.718;2023-06-22T13:21:39;103.83;;;58.37;;
12707;SDS011;6418;50.824;4.718;2023-06-22T13:24:07;104.43;;;58.37;;
12707;SDS011;6418;50.824;4.718;2023-06-22T13:26:33;98.67;;;56.73;;
12707;SDS011;6418;50.824;4.718;2023-06-22T13:29:00;94.07;;;54.57;;
12707;SDS011;6418;50.824;4.718;2023-06-22T13:31:29;108.87;;;58.30;;
12707;SDS011;6418;50.824;4.718;2023-06-22T13:33:55;95.93;;;57.50;;
12707;SDS011;6418;50.824;4.718;2023-06-22T13:36:22;92.27;;;54.47;;
12707;SDS011;6418;50.824;4.718;2023-06-22T13:38:49;103.97;;;59.27;;
12707;SDS011;6418;50.824;4.718;2023-06-22T13:41:16;117.47;;;60.93;;
12707;SDS011;6418;50.824;4.718;2023-06-22T13:43:43;104.23;;;58.27;;
12707;SDS011;6418;50.824;4.718;2023-06-22T13:46:10;91.80;;;55.47;;
12707;SDS011;6418;50.824;4.718;2023-06-22T13:48:38;112.63;;;58.53;;
12707;SDS011;6418;50.824;4.718;2023-06-22T13:51:05;79.60;;;46.57;;
12707;SDS011;6418;50.824;4.718;2023-06-22T13:53:32;99.30;;;55.07;;
12707;SDS011;6418;50.824;4.718;2023-06-22T13:55:59;83.70;;;48.03;;
12707;SDS011;6418;50.824;4.718;2023-06-22T13:58:26;85.50;;;52.00;;
12707;SDS011;6418;50.824;4.718;2023-06-22T14:00:53;88.10;;;51.17;;
12707;SDS011;6418;50.824;4.718;2023-06-22T14:03:20;79.23;;;45.80;;
12707;SDS011;6418;50.824;4.718;2023-06-22T14:05:48;87.40;;;53.40;;
12707;SDS011;6418;50.824;4.718;2023-06-22T14:08:15;88.73;;;54.43;;
12707;SDS011;6418;50.824;4.718;2023-06-22T14:10:42;99.60;;;55.37;;
12707;SDS011;6418;50.824;4.718;2023-06-22T14:13:09;88.80;;;52.73;;
12707;SDS011;6418;50.824;4.718;2023-06-22T14:15:36;94.50;;;53.53;;
12707;SDS011;6418;50.824;4.718;2023-06-22T14:18:03;91.70;;;51.83;;
12707;SDS011;6418;50.824;4.718;2023-06-22T14:20:29;87.50;;;52.93;;
12707;SDS011;6418;50.824;4.718;2023-06-22T14:22:58;92.57;;;52.00;;
12707;SDS011;6418;50.824;4.718;2023-06-22T14:25:24;82.97;;;48.57;;
12707;SDS011;6418;50.824;4.718;2023-06-22T14:27:51;65.70;;;41.70;;
12707;SDS011;6418;50.824;4.718;2023-06-22T14:30:18;78.73;;;48.90;;
12707;SDS011;6418;50.824;4.718;2023-06-22T14:32:45;70.13;;;46.50;;
12707;SDS011;6418;50.824;4.718;2023-06-22T14:35:12;78.70;;;47.20;;
12707;SDS011;6418;50.824;4.718;2023-06-22T14:37:39;71.37;;;44.77;;
12707;SDS011;6418;50.824;4.718;2023-06-22T14:40:07;76.03;;;46.07;;